»·PEaware :: SWA544 KPDX-KSEA

SWA544 :: KPDX-KSEA

FLIGHT INFORMATION

Flight Status: Arrived
Operator:
Southwest Airlines
More flights by this operator :: More flights under this callsign
Pilot: Noam B. (29261)
Aircraft: BOEING 737-800
(B738)
More flights by this aircraft type
Origin: KPDX Portland Intl
United States
Destination: KSEA Seattle-Tacoma Intl
United States
More flights between these airports :: More routes between these airports
Route: +PTLD1 COUGA KRIEG HAWKZ7
File this flight plan on PilotEdge
Remarks:
Altitude:
(Current/Filed)
16,000ft
Speed:
(Current/Filed)
350kts
Departed: 13-May-20 04:08 PM
Arrived: 13-May-20 04:52 PM
Distance/Time
Traveled:
112nm/0:44
Distance/Time
To Go:
Arrived

Flight Plot

Page will automatically refresh every two minutes.

Flight plan parsing failed; only flown route is shown


Map Options




Map Legend


Flown Route
Filed Route
Departure Airport
Arrival Airport
Navaid (VOR, NDB)
Fix

Horizontal Profiles

Position Reports

Time Latitude Longitude Heading Altitude Ground
Speed
13-May-20 15:40 45.589614 -122.596872 208 32ft 0kts
13-May-20 15:41 45.589614 -122.596872 208 32ft 0kts
13-May-20 15:42 45.589614 -122.596872 208 32ft 0kts
13-May-20 15:43 45.589614 -122.596872 208 32ft 0kts
13-May-20 15:44 45.589614 -122.596872 208 32ft 0kts
13-May-20 15:45 45.589614 -122.596872 208 32ft 0kts
13-May-20 15:46 45.589614 -122.596872 208 32ft 0kts
13-May-20 15:47 45.589614 -122.596872 208 32ft 0kts
13-May-20 15:48 45.589614 -122.596872 208 32ft 0kts
13-May-20 15:49 45.589614 -122.596872 208 32ft 0kts
13-May-20 15:50 45.589614 -122.596872 208 32ft 0kts
13-May-20 15:51 45.589614 -122.596872 208 32ft 0kts
13-May-20 15:52 45.589614 -122.596872 208 32ft 0kts
13-May-20 15:53 45.589614 -122.596872 208 32ft 0kts
13-May-20 15:54 45.589614 -122.596872 208 32ft 0kts
13-May-20 15:55 45.589925 -122.596629 208 33ft 4kts
13-May-20 15:56 45.590029 -122.596549 208 33ft 0kts
13-May-20 15:57 45.590445 -122.596228 207 32ft 0kts
13-May-20 15:58 45.590445 -122.596228 207 32ft 0kts
13-May-20 15:59 45.590445 -122.596228 207 32ft 0kts
13-May-20 16:00 45.590445 -122.596228 207 32ft 0kts
13-May-20 16:01 45.590451 -122.596806 290 33ft 8kts
13-May-20 16:02 45.592177 -122.598364 26 32ft 10kts
13-May-20 16:03 45.593581 -122.597671 338 33ft 0kts
13-May-20 16:04 45.593790 -122.597781 343 32ft 4kts
13-May-20 16:05 45.594195 -122.597722 26 33ft 0kts
13-May-20 16:06 45.594425 -122.597503 39 32ft 6kts
13-May-20 16:07 45.590995 -122.585846 119 33ft 131kts
13-May-20 16:08 45.566832 -122.522094 121 2385ft 199kts
13-May-20 16:09 45.539787 -122.447155 117 3988ft 237kts
13-May-20 16:10 45.509895 -122.353908 117 6472ft 273kts
13-May-20 16:11 45.477003 -122.253011 119 9738ft 290kts
13-May-20 16:12 45.439313 -122.139944 119 11874ft 339kts
13-May-20 16:13 45.398004 -122.014963 118 14679ft 356kts
13-May-20 16:14 45.410552 -121.881320 36 15910ft 389kts
13-May-20 16:15 45.506833 -121.898157 320 15894ft 374kts
13-May-20 16:16 45.590414 -121.985991 320 15907ft 372kts
13-May-20 16:17 45.673833 -122.074030 320 15909ft 372kts
13-May-20 16:18 45.757133 -122.162079 320 15909ft 372kts
13-May-20 16:19 45.840563 -122.250403 320 15909ft 373kts
13-May-20 16:20 45.923636 -122.338463 320 15910ft 370kts
13-May-20 16:21 46.006259 -122.426201 320 15918ft 370kts
13-May-20 16:22 46.089357 -122.514576 320 15919ft 370kts
13-May-20 16:23 46.170752 -122.601275 320 15914ft 370kts
13-May-20 16:24 46.252676 -122.688657 319 15917ft 370kts
13-May-20 16:25 46.346053 -122.737404 18 15944ft 386kts
13-May-20 16:26 46.444679 -122.750590 321 15924ft 376kts
13-May-20 16:27 46.543404 -122.758428 11 15895ft 384kts
13-May-20 16:28 46.644737 -122.762547 9 15913ft 355kts
13-May-20 16:29 46.743742 -122.745093 5 15910ft 360kts
13-May-20 16:30 46.833040 -122.697873 50 15861ft 357kts
13-May-20 16:31 46.900275 -122.591966 46 13394ft 346kts
13-May-20 16:32 46.966173 -122.493136 47 10597ft 334kts
13-May-20 16:33 47.040835 -122.419090 30 8259ft 316kts
13-May-20 16:34 47.113826 -122.357475 30 6123ft 297kts
13-May-20 16:36 47.182715 -122.304575 25 6027ft 276kts
13-May-20 16:37 47.252245 -122.257014 23 6026ft 276kts
13-May-20 16:38 47.319969 -122.282273 318 6029ft 266kts
13-May-20 16:39 47.374944 -122.351352 317 6026ft 266kts
13-May-20 16:40 47.404947 -122.441417 252 6036ft 256kts
13-May-20 16:41 47.348610 -122.489582 177 6032ft 258kts
13-May-20 16:42 47.277791 -122.478755 175 6019ft 250kts
13-May-20 16:43 47.211405 -122.467987 175 6025ft 237kts
13-May-20 16:44 47.158251 -122.419059 107 5190ft 257kts
13-May-20 16:45 47.154014 -122.312737 78 4039ft 255kts
13-May-20 16:46 47.200379 -122.282100 325 4034ft 191kts
13-May-20 16:47 47.247785 -122.310094 358 3785ft 186kts
13-May-20 16:48 47.297653 -122.309230 357 2928ft 178kts
13-May-20 16:49 47.344591 -122.308772 357 2050ft 148kts
13-May-20 16:50 47.382352 -122.308491 357 1390ft 144kts
13-May-20 16:51 47.420695 -122.308101 356 714ft 146kts
13-May-20 16:52 47.448423 -122.308095 358 480ft 40kts
13-May-20 16:52 47.450042 -122.306675 98 480ft 0kts
13-May-20 16:54 47.447195 -122.305255 142 480ft 19kts

Navigation Log

Ident Type
Flight plan parsing failed, navigation log unavailable